createdAt,value
2018-08-19T00:01:46.848Z,96503.27
2018-08-19T00:04:15.480Z,96500.14
2018-08-19T00:06:44.289Z,96501.79
2018-08-19T00:09:16.180Z,96502.92
2018-08-19T00:11:46.162Z,96507.17
2018-08-19T00:14:27.372Z,96503.09
2018-08-19T00:16:57.939Z,96499.48
2018-08-19T00:19:27.051Z,96494.08
2018-08-19T00:21:56.239Z,96499.07
2018-08-19T00:24:25.204Z,96496.58
2018-08-19T00:27:04.386Z,96500.13
2018-08-19T00:29:36.924Z,96499.16
2018-08-19T00:32:06.065Z,96500.59
2018-08-19T00:34:35.350Z,96497.51
2018-08-19T00:37:06.033Z,96505.03
2018-08-19T00:39:35.128Z,96507.29
2018-08-19T00:42:04.804Z,96503.25
2018-08-19T00:44:34.117Z,96506.34
2018-08-19T00:47:02.744Z,96501.83
2018-08-19T00:49:31.654Z,96509.84
2018-08-19T00:52:01.446Z,96506.59
2018-08-19T00:54:31.229Z,96515.40
2018-08-19T00:57:00.783Z,96518.66
2018-08-19T00:59:30.573Z,96518.48
2018-08-19T01:01:59.307Z,96521.91
2018-08-19T01:04:28.396Z,96519.45
2018-08-19T01:06:58.052Z,96518.83
2018-08-19T01:09:28.710Z,96524.52
2018-08-19T01:11:57.363Z,96520.30
2018-08-19T01:14:26.268Z,96524.05
2018-08-19T01:16:54.864Z,96527.48
2018-08-19T01:19:23.541Z,96524.63
2018-08-19T01:21:53.776Z,96522.19
2018-08-19T01:24:22.794Z,96523.98
2018-08-19T01:26:51.343Z,96529.53
2018-08-19T01:29:33.614Z,96527.70
2018-08-19T01:32:09.213Z,96522.98
2018-08-19T01:34:38.677Z,96517.45
2018-08-19T01:37:07.695Z,96523.92
2018-08-19T01:39:37.984Z,96520.72
2018-08-19T01:44:56.678Z,96522.89
2018-08-19T01:47:25.224Z,96521.62
2018-08-19T01:50:05.197Z,96522.24
2018-08-19T01:52:33.747Z,96526.48
2018-08-19T01:55:02.459Z,96535.43
2018-08-19T01:57:36.090Z,96531.70
2018-08-19T02:00:04.744Z,96533.00
2018-08-19T02:02:39.568Z,96538.86
2018-08-19T02:05:08.129Z,96535.44
2018-08-19T02:07:37.001Z,96536.73
2018-08-19T02:10:08.375Z,96536.77
2018-08-19T02:12:39.888Z,96534.84
2018-08-19T02:15:09.636Z,96540.04
2018-08-19T02:17:43.275Z,96541.17
2018-08-19T02:20:11.867Z,96544.28
2018-08-19T02:22:42.575Z,96543.45
2018-08-19T02:25:11.484Z,96534.20
2018-08-19T02:27:40.387Z,96541.20
2018-08-19T02:30:09.092Z,96535.20
2018-08-19T02:32:37.726Z,96536.83
2018-08-19T02:35:06.673Z,96538.13
2018-08-19T02:37:35.250Z,96536.49
2018-08-19T02:40:03.888Z,96530.83
2018-08-19T02:42:33.229Z,96536.34
2018-08-19T02:45:05.221Z,96534.08
2018-08-19T02:47:34.871Z,96529.05
2018-08-19T02:50:03.655Z,96535.67
2018-08-19T02:52:33.613Z,96540.51
2018-08-19T02:55:03.668Z,96544.09
2018-08-19T02:57:32.998Z,96536.66
2018-08-19T03:00:02.646Z,96540.56
2018-08-19T03:02:32.938Z,96539.28
2018-08-19T03:05:03.305Z,96540.58
2018-08-19T03:07:32.762Z,96544.31
2018-08-19T03:10:08.561Z,96539.58
2018-08-19T03:12:37.253Z,96541.49
2018-08-19T03:15:07.378Z,96544.09
2018-08-19T03:17:36.204Z,96549.64
2018-08-19T03:20:06.802Z,96542.64
2018-08-19T03:22:35.732Z,96540.67
2018-08-19T03:25:04.363Z,96547.02
2018-08-19T03:27:33.841Z,96550.45
2018-08-19T03:30:04.627Z,96547.05
2018-08-19T03:32:33.230Z,96546.27
2018-08-19T03:35:07.510Z,96540.21
2018-08-19T03:37:37.487Z,96541.17
2018-08-19T03:40:07.408Z,96550.75
2018-08-19T03:42:35.982Z,96548.30
2018-08-19T03:45:09.836Z,96548.94
2018-08-19T03:47:38.397Z,96548.30
2018-08-19T03:50:12.028Z,96544.69
2018-08-19T03:52:43.495Z,96549.55
2018-08-19T03:55:20.143Z,96552.33
2018-08-19T03:57:49.260Z,96546.00
2018-08-19T04:00:18.865Z,96551.23
2018-08-19T04:02:48.319Z,96546.03
2018-08-19T04:05:16.972Z,96546.69
2018-08-19T04:07:45.507Z,96553.50
2018-08-19T04:10:17.127Z,96554.97
2018-08-19T04:12:45.700Z,96552.20
2018-08-19T04:15:15.292Z,96556.43
2018-08-19T04:17:43.837Z,96552.70
2018-08-19T04:20:12.425Z,96551.23
2018-08-19T04:22:41.005Z,96559.84
2018-08-19T04:25:09.684Z,96560.48
2018-08-19T04:27:38.237Z,96561.27
2018-08-19T04:30:06.847Z,96562.09
2018-08-19T04:32:35.476Z,96562.38
2018-08-19T04:35:04.104Z,96566.13
2018-08-19T04:37:32.656Z,96569.38
2018-08-19T04:40:01.205Z,96569.72
2018-08-19T04:42:29.725Z,96567.12
2018-08-19T04:44:58.393Z,96570.08
2018-08-19T04:47:31.710Z,96577.37
2018-08-19T04:50:00.302Z,96573.31
2018-08-19T04:52:28.866Z,96573.46
2018-08-19T04:54:57.560Z,96577.52
2018-08-19T04:57:26.116Z,96579.14
2018-08-19T04:59:54.704Z,96579.80
2018-08-19T05:02:23.716Z,96575.42
2018-08-19T05:04:52.291Z,96583.70
2018-08-19T05:07:20.845Z,96582.55
2018-08-19T05:09:49.740Z,96583.38
2018-08-19T05:12:32.460Z,96579.82
2018-08-19T05:15:01.006Z,96580.80
2018-08-19T05:17:29.594Z,96579.20
2018-08-19T05:20:16.089Z,96583.62
2018-08-19T05:22:44.952Z,96593.37
2018-08-19T05:25:13.616Z,96588.97
2018-08-19T05:27:42.169Z,96584.94
2018-08-19T05:30:10.776Z,96590.14
2018-08-19T05:32:47.034Z,96587.05
2018-08-19T05:35:15.600Z,96594.84
2018-08-19T05:37:44.944Z,96585.10
2018-08-19T05:40:13.504Z,96584.77
2018-08-19T05:42:42.129Z,96582.00
2018-08-19T05:45:11.035Z,96592.40
2018-08-19T05:47:39.591Z,96590.09
2018-08-19T05:50:08.245Z,96594.13
2018-08-19T05:52:36.828Z,96588.66
2018-08-19T05:55:05.439Z,96595.13
2018-08-19T05:57:35.064Z,96600.66
2018-08-19T06:00:08.899Z,96595.75
2018-08-19T06:02:43.241Z,96589.21
2018-08-19T06:05:12.091Z,96594.25
2018-08-19T06:07:41.070Z,96595.02
2018-08-19T06:10:10.458Z,96591.08
2018-08-19T06:12:39.032Z,96593.94
2018-08-19T06:15:07.621Z,96595.88
2018-08-19T06:17:36.276Z,96589.98
2018-08-19T06:20:05.274Z,96591.88
2018-08-19T06:22:39.070Z,96589.84
2018-08-19T06:25:07.770Z,96595.58
2018-08-19T06:27:50.820Z,96588.37
2018-08-19T06:30:20.088Z,96588.40
2018-08-19T06:32:48.692Z,96588.13
2018-08-19T06:35:17.365Z,96585.59
2018-08-19T06:37:46.102Z,96584.30
2018-08-19T06:40:17.687Z,96585.12
2018-08-19T06:42:46.385Z,96580.03
2018-08-19T06:45:15.852Z,96582.78
2018-08-19T06:47:44.776Z,96576.46
2018-08-19T06:50:24.403Z,96575.75
2018-08-19T06:52:53.813Z,96573.09
2018-08-19T06:55:22.712Z,96575.98
2018-08-19T06:57:51.319Z,96573.00
2018-08-19T07:00:34.205Z,96571.11
2018-08-19T07:03:04.508Z,96572.80
2018-08-19T07:05:33.958Z,96573.33
2018-08-19T07:08:02.812Z,96569.00
2018-08-19T07:10:37.364Z,96566.10
2018-08-19T07:13:14.810Z,96564.31
2018-08-19T07:15:44.444Z,96564.30
2018-08-19T07:21:15.372Z,96567.53
2018-08-19T07:23:44.142Z,96568.59
2018-08-19T07:26:12.649Z,96568.61
2018-08-19T07:28:41.216Z,96564.73
2018-08-19T07:31:09.848Z,96570.70
2018-08-19T07:33:38.393Z,96566.48
2018-08-19T07:36:06.950Z,96576.72
2018-08-19T07:38:35.502Z,96575.44
2018-08-19T07:41:04.233Z,96576.95
2018-08-19T07:43:32.908Z,96574.62
2018-08-19T07:46:01.471Z,96579.05
2018-08-19T07:48:30.081Z,96579.06
2018-08-19T07:50:59.430Z,96573.19
2018-08-19T07:53:27.988Z,96570.44
2018-08-19T07:55:56.570Z,96573.73
2018-08-19T07:58:36.113Z,96574.95
2018-08-19T08:01:04.734Z,96575.50
2018-08-19T08:03:33.415Z,96571.52
2018-08-19T08:06:02.208Z,96571.02
2018-08-19T08:08:30.968Z,96572.59
2018-08-19T08:10:59.598Z,96570.80
2018-08-19T08:13:28.234Z,96571.60
2018-08-19T08:15:57.890Z,96569.84
2018-08-19T08:18:26.564Z,96571.20
2018-08-19T08:21:04.638Z,96575.09
2018-08-19T08:23:33.348Z,96576.08
2018-08-19T08:26:01.952Z,96576.40
2018-08-19T08:28:30.520Z,96580.11
2018-08-19T08:30:59.124Z,96579.95
2018-08-19T08:33:27.788Z,96575.93
2018-08-19T08:35:57.712Z,96577.02
2018-08-19T08:38:26.485Z,96569.43
2018-08-19T08:40:55.635Z,96562.77
2018-08-19T08:43:24.362Z,96564.64
2018-08-19T08:45:56.032Z,96561.33
2018-08-19T08:48:24.639Z,96561.23
2018-08-19T08:50:53.420Z,96565.38
2018-08-19T08:53:22.151Z,96564.82
2018-08-19T08:55:50.840Z,96555.61
2018-08-19T08:58:19.432Z,96552.27
2018-08-19T09:00:48.051Z,96548.18
2018-08-19T09:03:17.550Z,96546.71
2018-08-19T09:05:46.116Z,96546.10
2018-08-19T09:08:14.745Z,96547.52
2018-08-19T09:10:43.305Z,96541.82
2018-08-19T09:13:12.662Z,96541.23
2018-08-19T09:15:41.205Z,96540.47
2018-08-19T09:18:09.790Z,96537.34
2018-08-19T09:20:39.076Z,96537.72
2018-08-19T09:23:08.982Z,96538.39
2018-08-19T09:25:37.452Z,96533.64
2018-08-19T09:28:06.036Z,96530.79
2018-08-19T09:30:40.185Z,96529.49
2018-08-19T09:33:09.355Z,96529.69
2018-08-19T09:35:39.160Z,96528.31
2018-08-19T09:38:21.419Z,96521.91
2018-08-19T09:40:50.247Z,96516.94
2018-08-19T09:43:19.065Z,96519.77
2018-08-19T09:45:48.201Z,96516.55
2018-08-19T09:48:17.197Z,96514.21
2018-08-19T09:50:46.176Z,96503.77
2018-08-19T09:53:14.747Z,96517.87
2018-08-19T09:55:47.818Z,96513.69
2018-08-19T09:58:22.293Z,96514.44
2018-08-19T10:00:56.372Z,96516.77
2018-08-19T10:03:25.989Z,96516.68
2018-08-19T10:05:54.563Z,96512.05
2018-08-19T10:08:24.598Z,96511.48
2018-08-19T10:10:53.264Z,96511.95
2018-08-19T10:13:21.891Z,96513.88
2018-08-19T10:15:50.534Z,96504.35
2018-08-19T10:18:19.623Z,96500.68
2018-08-19T10:20:48.224Z,96504.77
2018-08-19T10:23:16.906Z,96505.23
2018-08-19T10:25:45.493Z,96498.30
2018-08-19T10:28:14.141Z,96500.55
2018-08-19T10:30:47.999Z,96504.94
2018-08-19T10:33:17.218Z,96507.09
2018-08-19T10:35:46.031Z,96503.96
2018-08-19T10:38:16.385Z,96500.81
2018-08-19T10:40:52.057Z,96495.34
2018-08-19T10:43:20.811Z,96490.87
2018-08-19T10:45:49.411Z,96491.70
2018-08-19T10:48:18.012Z,96495.92
2018-08-19T10:50:46.735Z,96488.58
2018-08-19T10:53:20.702Z,96486.56
2018-08-19T10:55:49.379Z,96485.55
2018-08-19T10:58:18.077Z,96481.25
2018-08-19T11:00:46.880Z,96488.00
2018-08-19T11:03:18.592Z,96483.91
2018-08-19T11:05:49.834Z,96481.90
2018-08-19T11:08:18.822Z,96489.09
2018-08-19T11:10:47.763Z,96480.25
2018-08-19T11:13:19.618Z,96475.02
2018-08-19T11:15:56.846Z,96471.47
2018-08-19T11:18:29.628Z,96470.70
2018-08-19T11:21:15.441Z,96464.40
2018-08-19T11:23:46.859Z,96468.42
2018-08-19T11:26:29.678Z,96461.61
2018-08-19T11:28:59.315Z,96460.60
2018-08-19T11:31:34.342Z,96455.67
2018-08-19T11:34:05.279Z,96455.23
2018-08-19T11:36:39.472Z,96454.24
2018-08-19T11:39:10.426Z,96451.70
2018-08-19T11:41:39.037Z,96449.02
2018-08-19T11:44:09.303Z,96457.00
2018-08-19T11:46:38.042Z,96447.36
2018-08-19T11:49:15.034Z,96443.22
2018-08-19T11:51:59.255Z,96440.20
2018-08-19T11:54:28.570Z,96435.19
2018-08-19T11:57:16.683Z,96426.27
2018-08-19T11:59:46.166Z,96431.44
2018-08-19T12:02:17.989Z,96427.55
2018-08-19T12:04:47.047Z,96428.38
2018-08-19T12:07:15.747Z,96425.70
2018-08-19T12:10:07.069Z,96420.38
2018-08-19T12:12:45.837Z,96418.04
2018-08-19T12:15:21.093Z,96412.45
2018-08-19T12:17:49.651Z,96415.41
2018-08-19T12:20:23.199Z,96420.24
2018-08-19T12:22:52.007Z,96407.44
2018-08-19T12:25:20.647Z,96407.72
2018-08-19T12:27:49.360Z,96409.53
2018-08-19T12:30:18.117Z,96402.58
2018-08-19T12:32:46.726Z,96395.41
2018-08-19T12:35:15.568Z,96405.98
2018-08-19T12:37:44.279Z,96399.39
2018-08-19T12:40:13.011Z,96401.74
2018-08-19T12:42:46.735Z,96396.65
2018-08-19T12:45:15.374Z,96397.27
2018-08-19T12:47:43.948Z,96393.56
2018-08-19T12:50:14.519Z,96391.88
2018-08-19T12:52:43.198Z,96387.79
2018-08-19T12:55:14.457Z,96380.20
2018-08-19T12:57:43.721Z,96380.73
2018-08-19T13:00:16.856Z,96379.42
2018-08-19T13:49:54.272Z,96327.48
2018-08-19T13:52:22.827Z,96324.12
2018-08-19T13:55:01.646Z,96328.30
2018-08-19T13:57:30.463Z,96328.65
2018-08-19T13:59:59.389Z,96325.73
2018-08-19T14:02:28.091Z,96319.41
2018-08-19T14:04:56.640Z,96322.62
2018-08-19T14:07:30.861Z,96313.28
2018-08-19T14:09:59.488Z,96321.58
2018-08-19T14:12:28.155Z,96317.58
2018-08-19T14:14:56.745Z,96315.70
2018-08-19T14:17:25.337Z,96319.66
2018-08-19T14:19:54.082Z,96312.47
2018-08-19T14:22:22.642Z,96313.58
2018-08-19T14:24:51.556Z,96316.22
2018-08-19T14:27:20.184Z,96306.90
2018-08-19T14:29:48.742Z,96298.05
2018-08-19T14:32:29.812Z,96298.33
2018-08-19T14:34:59.915Z,96302.53
2018-08-19T14:37:28.859Z,96310.28
2018-08-19T14:39:58.546Z,96303.34
2018-08-19T14:42:27.208Z,96304.94
2018-08-19T14:44:56.821Z,96294.61
2018-08-19T14:47:25.925Z,96310.34
2018-08-19T14:49:54.877Z,96307.08
2018-08-19T14:52:28.107Z,96303.27
2018-08-19T14:54:56.745Z,96299.00
2018-08-19T14:57:25.938Z,96297.92
2018-08-19T14:59:54.553Z,96300.02
2018-08-19T15:02:23.215Z,96300.77
2018-08-19T15:04:51.875Z,96298.66
2018-08-19T15:10:10.973Z,96289.42
2018-08-19T15:12:39.458Z,96291.59
2018-08-19T15:15:08.085Z,96292.83
2018-08-19T15:17:36.637Z,96291.99
2018-08-19T15:20:05.274Z,96293.54
2018-08-19T15:22:33.859Z,96287.67
2018-08-19T15:25:02.446Z,96287.09
2018-08-19T15:27:34.254Z,96287.48
2018-08-19T15:30:02.866Z,96282.97
2018-08-19T15:32:31.851Z,96279.45
2018-08-19T15:35:00.267Z,96284.19
2018-08-19T15:37:28.809Z,96281.88
2018-08-19T15:39:57.375Z,96280.56
2018-08-19T15:42:25.958Z,96273.49
2018-08-19T15:44:54.504Z,96274.44
2018-08-19T15:47:23.058Z,96273.87
2018-08-19T15:50:03.039Z,96280.16
2018-08-19T15:52:31.704Z,96274.81
2018-08-19T15:55:00.655Z,96277.11
2018-08-19T15:57:29.349Z,96275.27
2018-08-19T15:59:57.925Z,96279.14
2018-08-19T16:02:26.515Z,96281.44
2018-08-19T16:04:55.972Z,96276.00
2018-08-19T16:07:24.636Z,96274.98
2018-08-19T16:09:53.243Z,96275.30
2018-08-19T16:12:21.955Z,96275.59
2018-08-19T16:14:50.416Z,96276.45
2018-08-19T16:23:15.292Z,96257.38
2018-08-19T16:25:43.854Z,96265.70
2018-08-19T16:28:12.454Z,96261.88
2018-08-19T16:30:41.082Z,96257.18
2018-08-19T16:33:09.689Z,96254.02
2018-08-19T16:35:39.589Z,96260.26
2018-08-19T16:38:08.161Z,96258.97
2018-08-19T16:40:36.773Z,96252.17
2018-08-19T16:43:05.514Z,96254.03
2018-08-19T16:45:34.220Z,96248.56
2018-08-19T16:48:02.885Z,96254.89
2018-08-19T16:50:31.734Z,96251.61
2018-08-19T16:53:00.176Z,96244.48
2018-08-19T16:55:28.750Z,96250.45
2018-08-19T16:57:57.401Z,96246.77
2018-08-19T17:00:26.023Z,96248.97
2018-08-19T17:02:54.962Z,96254.28
2018-08-19T17:05:30.733Z,96243.36
2018-08-19T17:07:59.300Z,96247.41
2018-08-19T17:10:29.517Z,96245.84
2018-08-19T17:12:58.654Z,96243.23
2018-08-19T17:15:27.563Z,96252.59
2018-08-19T17:17:56.163Z,96252.42
2018-08-19T17:20:24.904Z,96255.36
2018-08-19T17:22:53.445Z,96251.14
2018-08-19T17:25:22.015Z,96251.09
2018-08-19T17:27:50.572Z,96254.58
2018-08-19T17:30:19.294Z,96253.85
2018-08-19T17:32:55.627Z,96257.70
2018-08-19T17:35:24.229Z,96262.27
2018-08-19T17:37:54.084Z,96261.24
2018-08-19T17:40:22.653Z,96262.14
2018-08-19T17:42:51.249Z,96261.20
2018-08-19T17:45:19.842Z,96266.78
2018-08-19T17:47:48.422Z,96263.32
2018-08-19T17:50:21.180Z,96262.73
2018-08-19T17:52:49.759Z,96265.09
2018-08-19T17:55:18.360Z,96273.94
2018-08-19T17:57:46.921Z,96271.44
2018-08-19T18:00:15.645Z,96269.61
2018-08-19T18:02:44.532Z,96269.75
2018-08-19T18:05:14.542Z,96275.75
2018-08-19T18:07:43.223Z,96273.23
2018-08-19T18:10:12.913Z,96271.48
2018-08-19T18:12:41.475Z,96272.77
2018-08-19T18:15:11.058Z,96271.55
2018-08-19T18:17:40.437Z,96273.86
2018-08-19T18:20:41.044Z,96278.72
2018-08-19T18:23:15.615Z,96277.33
2018-08-19T18:25:47.819Z,96274.16
2018-08-19T18:28:26.131Z,96274.15
2018-08-19T18:31:01.055Z,96283.69
2018-08-19T18:33:29.714Z,96286.27
2018-08-19T18:35:58.376Z,96289.22
2018-08-19T18:38:30.351Z,96288.34
2018-08-19T18:40:59.024Z,96294.04
2018-08-19T18:43:27.599Z,96290.40
2018-08-19T18:45:56.279Z,96295.61
2018-08-19T18:48:24.817Z,96300.08
2018-08-19T18:50:55.384Z,96301.22
2018-08-19T18:53:24.648Z,96304.44
2018-08-19T18:55:53.278Z,96300.40
2018-08-19T18:58:21.989Z,96292.34
2018-08-19T19:00:54.707Z,96294.65
2018-08-19T19:03:23.304Z,96301.53
2018-08-19T19:05:51.869Z,96302.86
2018-08-19T19:08:20.448Z,96306.73
2018-08-19T19:10:56.889Z,96309.38
2018-08-19T19:13:26.499Z,96305.13
2018-08-19T19:15:55.172Z,96304.41
2018-08-19T19:18:23.729Z,96303.09
2018-08-19T19:20:57.668Z,96304.22
2018-08-19T19:23:31.973Z,96298.36
2018-08-19T19:26:01.447Z,96299.47
2018-08-19T19:28:30.492Z,96304.01
2018-08-19T19:31:04.641Z,96299.75
2018-08-19T19:33:33.285Z,96291.50
2018-08-19T19:36:07.307Z,96290.00
2018-08-19T19:38:47.486Z,96298.06
2018-08-19T19:41:16.194Z,96291.61
2018-08-19T19:43:44.843Z,96297.27
2018-08-19T19:46:13.393Z,96300.34
2018-08-19T19:48:41.944Z,96295.88
2018-08-19T19:51:11.469Z,96297.58
2018-08-19T19:53:40.008Z,96297.90
2018-08-19T19:56:13.436Z,96298.89
2018-08-19T19:58:43.536Z,96297.26
2018-08-19T20:01:12.100Z,96303.03
2018-08-19T20:03:45.911Z,96303.13
2018-08-19T20:06:14.607Z,96307.15
2018-08-19T20:08:43.136Z,96305.55
2018-08-19T20:11:28.627Z,96305.72
2018-08-19T20:13:59.603Z,96306.62
2018-08-19T20:16:28.176Z,96311.56
2018-08-19T20:18:56.769Z,96307.73
2018-08-19T20:21:26.582Z,96311.86
2018-08-19T20:23:58.148Z,96304.31
2018-08-19T20:26:27.480Z,96305.92
2018-08-19T20:28:57.251Z,96307.39
2018-08-19T20:31:25.859Z,96307.70
2018-08-19T20:33:54.617Z,96306.77
2018-08-19T20:36:23.216Z,96302.34
2018-08-19T20:38:52.448Z,96309.27
2018-08-19T20:41:21.252Z,96307.25
2018-08-19T20:43:49.871Z,96313.80
2018-08-19T20:46:18.558Z,96306.30
2018-08-19T20:48:47.966Z,96317.05
2018-08-19T20:51:16.650Z,96311.97
2018-08-19T20:53:45.201Z,96317.32
2018-08-19T20:56:13.784Z,96322.99
2018-08-19T20:58:42.368Z,96325.52
2018-08-19T21:01:17.351Z,96322.11
2018-08-19T21:03:46.433Z,96320.44
2018-08-19T21:06:15.037Z,96328.06
2018-08-19T21:08:43.613Z,96325.45
2018-08-19T21:11:12.537Z,96323.12
2018-08-19T21:13:41.175Z,96325.28
2018-08-19T21:16:09.754Z,96322.54
2018-08-19T21:18:38.441Z,96326.16
2018-08-19T21:21:07.145Z,96324.72
2018-08-19T21:23:35.700Z,96328.19
2018-08-19T21:26:04.251Z,96329.82
2018-08-19T21:28:32.901Z,96329.44
2018-08-19T21:31:01.509Z,96336.27
2018-08-19T21:33:30.110Z,96337.09
2018-08-19T21:35:58.749Z,96334.14
2018-08-19T21:38:27.495Z,96332.84
2018-08-19T21:40:57.397Z,96333.72
2018-08-19T21:43:28.654Z,96341.58
2018-08-19T21:45:58.451Z,96336.30
2018-08-19T21:48:27.882Z,96329.56
2018-08-19T21:50:56.480Z,96329.17
2018-08-19T21:53:25.055Z,96326.94
2018-08-19T21:55:53.924Z,96328.84
2018-08-19T21:58:22.603Z,96332.33
2018-08-19T22:01:00.798Z,96337.06
2018-08-19T22:03:34.757Z,96330.48
2018-08-19T22:06:06.971Z,96325.36
2018-08-19T22:08:35.631Z,96325.49
2018-08-19T22:11:04.284Z,96332.03
2018-08-19T22:13:32.864Z,96325.43
2018-08-19T22:16:01.463Z,96327.86
2018-08-19T22:21:32.563Z,96327.03
2018-08-19T22:24:01.143Z,96330.47
2018-08-19T22:26:29.711Z,96331.73
2018-08-19T22:29:11.473Z,96327.97
2018-08-19T22:31:40.146Z,96330.83
2018-08-19T22:34:08.699Z,96325.95
2018-08-19T22:36:37.372Z,96329.25
2018-08-19T22:39:09.294Z,96327.64
2018-08-19T22:41:37.947Z,96322.91
2018-08-19T22:44:06.551Z,96322.23
2018-08-19T22:46:35.149Z,96324.98
2018-08-19T22:49:03.967Z,96322.48
2018-08-19T22:51:33.727Z,96318.20
2018-08-19T22:54:02.299Z,96307.75
2018-08-19T22:56:30.908Z,96312.84
2018-08-19T22:58:59.486Z,96311.97
2018-08-19T23:01:33.391Z,96306.04
2018-08-19T23:04:03.050Z,96313.64
2018-08-19T23:06:32.303Z,96304.19
2018-08-19T23:09:01.296Z,96301.69
2018-08-19T23:11:35.939Z,96302.02
2018-08-19T23:14:16.004Z,96303.76
2018-08-19T23:16:44.697Z,96300.84
2018-08-19T23:19:13.448Z,96298.91
2018-08-19T23:21:42.034Z,96299.46
2018-08-19T23:24:10.623Z,96289.77
2018-08-19T23:26:39.229Z,96291.95
2018-08-19T23:29:07.886Z,96289.83
2018-08-19T23:31:36.440Z,96292.82
2018-08-19T23:34:05.007Z,96289.09
2018-08-19T23:36:33.592Z,96284.46
2018-08-19T23:39:02.245Z,96287.89
2018-08-19T23:41:30.858Z,96282.18
2018-08-19T23:43:59.436Z,96279.87
2018-08-19T23:46:28.159Z,96282.62
2018-08-19T23:48:56.756Z,96278.07
2018-08-19T23:51:29.294Z,96277.64
2018-08-19T23:53:59.063Z,96284.84
2018-08-19T23:56:28.007Z,96279.08
2018-08-19T23:58:56.863Z,96267.87
